sensor_id;sensor_type;location;lat;lon;timestamp;P1;durP1;ratioP1;P2;durP2;ratioP2
81811;SDS011;71243;51.848;5.768;2023-07-31T00:01:14;3.87;;;1.10;;
81811;SDS011;71243;51.848;5.768;2023-07-31T00:03:39;3.45;;;1.00;;
81811;SDS011;71243;51.848;5.768;2023-07-31T00:06:04;3.93;;;1.00;;
81811;SDS011;71243;51.848;5.768;2023-07-31T00:08:30;4.05;;;1.10;;
81811;SDS011;71243;51.848;5.768;2023-07-31T00:10:55;4.57;;;1.10;;
81811;SDS011;71243;51.848;5.768;2023-07-31T00:13:20;5.10;;;1.38;;
81811;SDS011;71243;51.848;5.768;2023-07-31T00:15:45;6.47;;;1.80;;
81811;SDS011;71243;51.848;5.768;2023-07-31T00:18:11;6.82;;;2.03;;
81811;SDS011;71243;51.848;5.768;2023-07-31T00:20:36;7.72;;;2.83;;
81811;SDS011;71243;51.848;5.768;2023-07-31T00:23:01;11.87;;;3.03;;
81811;SDS011;71243;51.848;5.768;2023-07-31T00:25:26;14.05;;;4.90;;
81811;SDS011;71243;51.848;5.768;2023-07-31T00:27:52;11.57;;;3.95;;
81811;SDS011;71243;51.848;5.768;2023-07-31T00:30:17;15.13;;;4.57;;
81811;SDS011;71243;51.848;5.768;2023-07-31T00:32:42;19.92;;;5.65;;
81811;SDS011;71243;51.848;5.768;2023-07-31T00:35:07;16.05;;;6.45;;
81811;SDS011;71243;51.848;5.768;2023-07-31T00:37:33;16.13;;;6.37;;
81811;SDS011;71243;51.848;5.768;2023-07-31T00:39:58;16.02;;;6.25;;
81811;SDS011;71243;51.848;5.768;2023-07-31T00:42:24;19.43;;;5.53;;
81811;SDS011;71243;51.848;5.768;2023-07-31T00:44:49;18.83;;;5.50;;
81811;SDS011;71243;51.848;5.768;2023-07-31T00:47:15;16.83;;;5.57;;
81811;SDS011;71243;51.848;5.768;2023-07-31T00:49:40;15.55;;;5.50;;
81811;SDS011;71243;51.848;5.768;2023-07-31T00:52:05;16.70;;;6.00;;
81811;SDS011;71243;51.848;5.768;2023-07-31T00:54:31;15.70;;;6.07;;
81811;SDS011;71243;51.848;5.768;2023-07-31T00:56:56;17.52;;;5.80;;
81811;SDS011;71243;51.848;5.768;2023-07-31T00:59:22;18.88;;;6.10;;
81811;SDS011;71243;51.848;5.768;2023-07-31T01:01:47;15.55;;;5.53;;
81811;SDS011;71243;51.848;5.768;2023-07-31T01:04:13;18.30;;;5.70;;
81811;SDS011;71243;51.848;5.768;2023-07-31T01:12:17;17.25;;;5.60;;
81811;SDS011;71243;51.848;5.768;2023-07-31T01:15:18;16.55;;;5.28;;
81811;SDS011;71243;51.848;5.768;2023-07-31T01:17:37;18.10;;;5.25;;
81811;SDS011;71243;51.848;5.768;2023-07-31T01:20:04;17.67;;;4.80;;
81811;SDS011;71243;51.848;5.768;2023-07-31T01:22:42;14.00;;;4.78;;
81811;SDS011;71243;51.848;5.768;2023-07-31T01:28:05;16.35;;;5.07;;
81811;SDS011;71243;51.848;5.768;2023-07-31T01:30:36;14.98;;;5.18;;
81811;SDS011;71243;51.848;5.768;2023-07-31T01:33:06;16.98;;;5.13;;
81811;SDS011;71243;51.848;5.768;2023-07-31T01:35:35;16.48;;;6.03;;
81811;SDS011;71243;51.848;5.768;2023-07-31T01:38:01;16.80;;;4.75;;
81811;SDS011;71243;51.848;5.768;2023-07-31T01:40:27;13.98;;;5.40;;
81811;SDS011;71243;51.848;5.768;2023-07-31T01:42:52;18.85;;;5.78;;
81811;SDS011;71243;51.848;5.768;2023-07-31T01:45:17;16.95;;;4.60;;
81811;SDS011;71243;51.848;5.768;2023-07-31T01:47:42;16.52;;;5.10;;
81811;SDS011;71243;51.848;5.768;2023-07-31T01:50:08;14.88;;;5.80;;
81811;SDS011;71243;51.848;5.768;2023-07-31T01:52:34;15.70;;;5.28;;
81811;SDS011;71243;51.848;5.768;2023-07-31T01:54:59;15.57;;;4.50;;
81811;SDS011;71243;51.848;5.768;2023-07-31T01:57:24;15.02;;;4.70;;
81811;SDS011;71243;51.848;5.768;2023-07-31T01:59:49;18.58;;;4.50;;
81811;SDS011;71243;51.848;5.768;2023-07-31T02:02:15;16.40;;;6.17;;
81811;SDS011;71243;51.848;5.768;2023-07-31T02:04:40;15.82;;;4.90;;
81811;SDS011;71243;51.848;5.768;2023-07-31T02:07:06;15.97;;;4.27;;
81811;SDS011;71243;51.848;5.768;2023-07-31T02:09:31;16.27;;;5.07;;
81811;SDS011;71243;51.848;5.768;2023-07-31T02:11:56;15.90;;;4.72;;
81811;SDS011;71243;51.848;5.768;2023-07-31T02:14:21;12.77;;;4.60;;
81811;SDS011;71243;51.848;5.768;2023-07-31T02:16:47;11.63;;;3.80;;
81811;SDS011;71243;51.848;5.768;2023-07-31T02:19:12;14.67;;;4.53;;
81811;SDS011;71243;51.848;5.768;2023-07-31T02:21:37;20.67;;;5.27;;
81811;SDS011;71243;51.848;5.768;2023-07-31T02:24:02;14.27;;;5.33;;
81811;SDS011;71243;51.848;5.768;2023-07-31T02:26:28;13.02;;;5.05;;
81811;SDS011;71243;51.848;5.768;2023-07-31T02:28:53;11.48;;;4.43;;
81811;SDS011;71243;51.848;5.768;2023-07-31T02:31:18;15.40;;;5.13;;
81811;SDS011;71243;51.848;5.768;2023-07-31T02:33:43;13.67;;;5.40;;
81811;SDS011;71243;51.848;5.768;2023-07-31T02:36:09;16.65;;;4.95;;
81811;SDS011;71243;51.848;5.768;2023-07-31T02:38:34;14.67;;;5.43;;
81811;SDS011;71243;51.848;5.768;2023-07-31T02:40:59;13.53;;;4.80;;
81811;SDS011;71243;51.848;5.768;2023-07-31T02:43:24;12.87;;;4.87;;
81811;SDS011;71243;51.848;5.768;2023-07-31T02:45:53;17.42;;;5.18;;
81811;SDS011;71243;51.848;5.768;2023-07-31T02:48:18;16.27;;;4.10;;
81811;SDS011;71243;51.848;5.768;2023-07-31T02:50:44;15.50;;;4.85;;
81811;SDS011;71243;51.848;5.768;2023-07-31T02:53:10;16.42;;;4.85;;
81811;SDS011;71243;51.848;5.768;2023-07-31T02:55:35;16.42;;;4.38;;
81811;SDS011;71243;51.848;5.768;2023-07-31T02:58:01;15.32;;;4.75;;
81811;SDS011;71243;51.848;5.768;2023-07-31T03:00:26;17.27;;;4.37;;
81811;SDS011;71243;51.848;5.768;2023-07-31T03:02:51;15.23;;;4.30;;
81811;SDS011;71243;51.848;5.768;2023-07-31T03:05:16;13.33;;;5.00;;
81811;SDS011;71243;51.848;5.768;2023-07-31T03:07:41;13.77;;;4.60;;
81811;SDS011;71243;51.848;5.768;2023-07-31T03:10:07;14.52;;;4.22;;
81811;SDS011;71243;51.848;5.768;2023-07-31T03:12:33;13.55;;;4.82;;
81811;SDS011;71243;51.848;5.768;2023-07-31T03:14:58;14.50;;;4.57;;
81811;SDS011;71243;51.848;5.768;2023-07-31T03:17:23;15.17;;;3.83;;
81811;SDS011;71243;51.848;5.768;2023-07-31T03:19:48;11.17;;;3.73;;
81811;SDS011;71243;51.848;5.768;2023-07-31T03:22:13;15.63;;;4.45;;
81811;SDS011;71243;51.848;5.768;2023-07-31T03:24:39;17.33;;;4.45;;
81811;SDS011;71243;51.848;5.768;2023-07-31T03:27:04;12.37;;;4.00;;
81811;SDS011;71243;51.848;5.768;2023-07-31T03:29:30;16.15;;;4.18;;
81811;SDS011;71243;51.848;5.768;2023-07-31T03:31:55;14.70;;;3.80;;
81811;SDS011;71243;51.848;5.768;2023-07-31T03:34:20;13.68;;;3.88;;
81811;SDS011;71243;51.848;5.768;2023-07-31T03:36:45;15.65;;;3.85;;
81811;SDS011;71243;51.848;5.768;2023-07-31T03:39:11;13.23;;;3.30;;
81811;SDS011;71243;51.848;5.768;2023-07-31T03:41:36;15.50;;;3.67;;
81811;SDS011;71243;51.848;5.768;2023-07-31T03:44:01;9.37;;;3.43;;
81811;SDS011;71243;51.848;5.768;2023-07-31T03:46:26;13.07;;;4.10;;
81811;SDS011;71243;51.848;5.768;2023-07-31T03:48:52;14.07;;;4.00;;
81811;SDS011;71243;51.848;5.768;2023-07-31T03:51:17;12.05;;;3.92;;
81811;SDS011;71243;51.848;5.768;2023-07-31T03:53:43;12.38;;;3.63;;
81811;SDS011;71243;51.848;5.768;2023-07-31T03:56:09;15.25;;;3.65;;
81811;SDS011;71243;51.848;5.768;2023-07-31T03:58:34;13.15;;;4.10;;
81811;SDS011;71243;51.848;5.768;2023-07-31T04:00:59;15.60;;;3.50;;
81811;SDS011;71243;51.848;5.768;2023-07-31T04:03:24;14.93;;;3.63;;
81811;SDS011;71243;51.848;5.768;2023-07-31T04:05:50;17.73;;;4.55;;
81811;SDS011;71243;51.848;5.768;2023-07-31T04:08:15;13.13;;;4.07;;
81811;SDS011;71243;51.848;5.768;2023-07-31T04:10:40;10.27;;;3.57;;
81811;SDS011;71243;51.848;5.768;2023-07-31T04:13:05;11.37;;;3.63;;
81811;SDS011;71243;51.848;5.768;2023-07-31T04:15:30;13.93;;;4.70;;
81811;SDS011;71243;51.848;5.768;2023-07-31T04:17:56;13.63;;;3.90;;
81811;SDS011;71243;51.848;5.768;2023-07-31T04:20:21;14.53;;;4.13;;
81811;SDS011;71243;51.848;5.768;2023-07-31T04:22:46;14.70;;;3.80;;
81811;SDS011;71243;51.848;5.768;2023-07-31T04:25:11;11.95;;;3.20;;
81811;SDS011;71243;51.848;5.768;2023-07-31T04:27:37;15.93;;;4.75;;
81811;SDS011;71243;51.848;5.768;2023-07-31T04:30:02;10.85;;;3.60;;
81811;SDS011;71243;51.848;5.768;2023-07-31T04:32:28;12.60;;;4.00;;
81811;SDS011;71243;51.848;5.768;2023-07-31T04:34:53;13.63;;;4.63;;
81811;SDS011;71243;51.848;5.768;2023-07-31T04:37:18;14.20;;;4.00;;
81811;SDS011;71243;51.848;5.768;2023-07-31T04:39:43;12.70;;;4.10;;
81811;SDS011;71243;51.848;5.768;2023-07-31T04:42:09;13.63;;;3.90;;
81811;SDS011;71243;51.848;5.768;2023-07-31T04:44:34;12.13;;;3.75;;
81811;SDS011;71243;51.848;5.768;2023-07-31T04:47:00;14.05;;;4.13;;
81811;SDS011;71243;51.848;5.768;2023-07-31T04:49:25;13.35;;;3.95;;
81811;SDS011;71243;51.848;5.768;2023-07-31T04:51:50;14.83;;;3.90;;
81811;SDS011;71243;51.848;5.768;2023-07-31T04:54:16;12.55;;;3.78;;
81811;SDS011;71243;51.848;5.768;2023-07-31T04:56:41;11.77;;;3.53;;
81811;SDS011;71243;51.848;5.768;2023-07-31T04:59:06;11.70;;;4.27;;
81811;SDS011;71243;51.848;5.768;2023-07-31T05:01:32;12.25;;;3.72;;
81811;SDS011;71243;51.848;5.768;2023-07-31T05:03:57;12.47;;;3.83;;
81811;SDS011;71243;51.848;5.768;2023-07-31T05:06:22;12.85;;;3.88;;
81811;SDS011;71243;51.848;5.768;2023-07-31T05:08:47;15.77;;;3.77;;
81811;SDS011;71243;51.848;5.768;2023-07-31T05:11:13;14.88;;;3.67;;
81811;SDS011;71243;51.848;5.768;2023-07-31T05:13:38;15.15;;;4.05;;
81811;SDS011;71243;51.848;5.768;2023-07-31T05:16:03;11.57;;;3.30;;
81811;SDS011;71243;51.848;5.768;2023-07-31T05:18:29;12.95;;;3.92;;
81811;SDS011;71243;51.848;5.768;2023-07-31T05:20:54;12.70;;;3.42;;
81811;SDS011;71243;51.848;5.768;2023-07-31T05:23:19;14.15;;;3.45;;
81811;SDS011;71243;51.848;5.768;2023-07-31T05:25:45;10.10;;;3.63;;
81811;SDS011;71243;51.848;5.768;2023-07-31T05:28:10;14.80;;;4.70;;
81811;SDS011;71243;51.848;5.768;2023-07-31T05:30:37;12.35;;;3.30;;
81811;SDS011;71243;51.848;5.768;2023-07-31T05:33:02;13.53;;;3.40;;
81811;SDS011;71243;51.848;5.768;2023-07-31T05:35:27;14.93;;;3.72;;
81811;SDS011;71243;51.848;5.768;2023-07-31T05:37:52;13.23;;;3.63;;
81811;SDS011;71243;51.848;5.768;2023-07-31T05:40:18;11.53;;;3.67;;
81811;SDS011;71243;51.848;5.768;2023-07-31T05:42:43;9.53;;;3.43;;
81811;SDS011;71243;51.848;5.768;2023-07-31T05:45:08;16.43;;;4.13;;
81811;SDS011;71243;51.848;5.768;2023-07-31T05:47:34;11.45;;;3.60;;
81811;SDS011;71243;51.848;5.768;2023-07-31T05:49:59;12.10;;;4.35;;
81811;SDS011;71243;51.848;5.768;2023-07-31T05:52:24;9.77;;;3.30;;
81811;SDS011;71243;51.848;5.768;2023-07-31T05:54:50;11.60;;;3.97;;
81811;SDS011;71243;51.848;5.768;2023-07-31T05:57:15;13.40;;;3.80;;
81811;SDS011;71243;51.848;5.768;2023-07-31T05:59:40;13.40;;;3.50;;
81811;SDS011;71243;51.848;5.768;2023-07-31T06:02:05;14.10;;;4.23;;
81811;SDS011;71243;51.848;5.768;2023-07-31T06:04:31;12.27;;;5.03;;
81811;SDS011;71243;51.848;5.768;2023-07-31T06:06:56;12.13;;;3.93;;
81811;SDS011;71243;51.848;5.768;2023-07-31T06:09:21;10.63;;;4.00;;
81811;SDS011;71243;51.848;5.768;2023-07-31T06:11:46;10.18;;;3.70;;
81811;SDS011;71243;51.848;5.768;2023-07-31T06:14:12;12.35;;;4.63;;
81811;SDS011;71243;51.848;5.768;2023-07-31T06:16:37;14.70;;;4.03;;
81811;SDS011;71243;51.848;5.768;2023-07-31T06:19:02;12.25;;;3.75;;
81811;SDS011;71243;51.848;5.768;2023-07-31T06:21:28;13.10;;;3.47;;
81811;SDS011;71243;51.848;5.768;2023-07-31T06:23:53;11.05;;;3.58;;
81811;SDS011;71243;51.848;5.768;2023-07-31T06:26:18;8.07;;;3.20;;
81811;SDS011;71243;51.848;5.768;2023-07-31T06:28:44;10.93;;;3.80;;
81811;SDS011;71243;51.848;5.768;2023-07-31T06:31:09;12.18;;;4.28;;
81811;SDS011;71243;51.848;5.768;2023-07-31T06:33:34;11.63;;;3.00;;
81811;SDS011;71243;51.848;5.768;2023-07-31T06:36:00;10.00;;;3.08;;
81811;SDS011;71243;51.848;5.768;2023-07-31T06:38:25;8.35;;;2.70;;
81811;SDS011;71243;51.848;5.768;2023-07-31T06:40:51;9.13;;;2.72;;
81811;SDS011;71243;51.848;5.768;2023-07-31T06:43:17;8.02;;;2.28;;
81811;SDS011;71243;51.848;5.768;2023-07-31T06:45:42;8.27;;;2.65;;
81811;SDS011;71243;51.848;5.768;2023-07-31T06:48:07;10.48;;;3.03;;
81811;SDS011;71243;51.848;5.768;2023-07-31T06:50:32;7.15;;;2.53;;
81811;SDS011;71243;51.848;5.768;2023-07-31T06:52:58;6.70;;;2.40;;
81811;SDS011;71243;51.848;5.768;2023-07-31T06:55:24;9.32;;;2.85;;
81811;SDS011;71243;51.848;5.768;2023-07-31T06:57:52;7.72;;;2.40;;
81811;SDS011;71243;51.848;5.768;2023-07-31T07:00:19;7.28;;;2.25;;
81811;SDS011;71243;51.848;5.768;2023-07-31T07:02:45;6.35;;;2.35;;
81811;SDS011;71243;51.848;5.768;2023-07-31T07:05:11;8.20;;;2.30;;
81811;SDS011;71243;51.848;5.768;2023-07-31T07:07:36;6.57;;;1.90;;
81811;SDS011;71243;51.848;5.768;2023-07-31T07:10:02;4.75;;;1.70;;
81811;SDS011;71243;51.848;5.768;2023-07-31T07:12:29;5.93;;;2.00;;
81811;SDS011;71243;51.848;5.768;2023-07-31T07:14:54;4.97;;;1.50;;
81811;SDS011;71243;51.848;5.768;2023-07-31T07:17:20;5.67;;;1.40;;
81811;SDS011;71243;51.848;5.768;2023-07-31T07:19:45;4.90;;;1.70;;
81811;SDS011;71243;51.848;5.768;2023-07-31T07:22:10;5.10;;;1.35;;
81811;SDS011;71243;51.848;5.768;2023-07-31T07:24:35;5.17;;;1.40;;
81811;SDS011;71243;51.848;5.768;2023-07-31T07:27:01;4.80;;;1.80;;
81811;SDS011;71243;51.848;5.768;2023-07-31T07:29:26;6.20;;;1.77;;
81811;SDS011;71243;51.848;5.768;2023-07-31T07:31:51;5.10;;;1.42;;
81811;SDS011;71243;51.848;5.768;2023-07-31T07:34:16;5.00;;;1.50;;
81811;SDS011;71243;51.848;5.768;2023-07-31T07:36:42;6.53;;;1.85;;
81811;SDS011;71243;51.848;5.768;2023-07-31T07:39:08;4.43;;;1.45;;
81811;SDS011;71243;51.848;5.768;2023-07-31T07:41:34;5.57;;;2.03;;
81811;SDS011;71243;51.848;5.768;2023-07-31T07:44:00;6.20;;;2.03;;
81811;SDS011;71243;51.848;5.768;2023-07-31T07:46:25;5.70;;;1.53;;
81811;SDS011;71243;51.848;5.768;2023-07-31T07:48:50;4.35;;;1.33;;
81811;SDS011;71243;51.848;5.768;2023-07-31T07:51:15;5.65;;;1.40;;
81811;SDS011;71243;51.848;5.768;2023-07-31T07:53:41;5.53;;;1.67;;
81811;SDS011;71243;51.848;5.768;2023-07-31T07:56:06;5.00;;;1.50;;
81811;SDS011;71243;51.848;5.768;2023-07-31T07:58:31;6.23;;;1.63;;
81811;SDS011;71243;51.848;5.768;2023-07-31T08:00:56;5.30;;;1.67;;
81811;SDS011;71243;51.848;5.768;2023-07-31T08:03:21;5.87;;;1.93;;
81811;SDS011;71243;51.848;5.768;2023-07-31T08:05:47;6.88;;;2.15;;
81811;SDS011;71243;51.848;5.768;2023-07-31T08:08:15;6.40;;;1.90;;
81811;SDS011;71243;51.848;5.768;2023-07-31T08:10:41;6.07;;;2.35;;
81811;SDS011;71243;51.848;5.768;2023-07-31T08:13:06;5.65;;;1.77;;
81811;SDS011;71243;51.848;5.768;2023-07-31T08:15:31;5.50;;;1.90;;
81811;SDS011;71243;51.848;5.768;2023-07-31T08:17:56;6.18;;;2.00;;
81811;SDS011;71243;51.848;5.768;2023-07-31T08:20:22;6.53;;;1.90;;
81811;SDS011;71243;51.848;5.768;2023-07-31T08:22:47;5.40;;;1.70;;
81811;SDS011;71243;51.848;5.768;2023-07-31T08:25:12;6.13;;;2.10;;
81811;SDS011;71243;51.848;5.768;2023-07-31T08:27:37;6.10;;;2.03;;
81811;SDS011;71243;51.848;5.768;2023-07-31T08:30:03;6.07;;;2.37;;
81811;SDS011;71243;51.848;5.768;2023-07-31T08:32:28;6.28;;;2.22;;
81811;SDS011;71243;51.848;5.768;2023-07-31T08:34:53;7.17;;;3.00;;
81811;SDS011;71243;51.848;5.768;2023-07-31T08:37:19;8.55;;;2.97;;
81811;SDS011;71243;51.848;5.768;2023-07-31T08:39:44;6.10;;;2.10;;
81811;SDS011;71243;51.848;5.768;2023-07-31T08:42:09;6.43;;;2.63;;
81811;SDS011;71243;51.848;5.768;2023-07-31T08:44:34;6.70;;;2.53;;
81811;SDS011;71243;51.848;5.768;2023-07-31T08:47:01;7.13;;;2.67;;
81811;SDS011;71243;51.848;5.768;2023-07-31T08:49:26;7.03;;;2.80;;
81811;SDS011;71243;51.848;5.768;2023-07-31T08:51:52;7.72;;;2.67;;
81811;SDS011;71243;51.848;5.768;2023-07-31T08:54:18;6.03;;;2.25;;
81811;SDS011;71243;51.848;5.768;2023-07-31T08:56:45;6.28;;;2.60;;
81811;SDS011;71243;51.848;5.768;2023-07-31T08:59:11;6.88;;;2.83;;
81811;SDS011;71243;51.848;5.768;2023-07-31T09:01:39;6.97;;;2.60;;
81811;SDS011;71243;51.848;5.768;2023-07-31T09:04:08;6.65;;;2.70;;
81811;SDS011;71243;51.848;5.768;2023-07-31T09:06:35;7.68;;;2.72;;
81811;SDS011;71243;51.848;5.768;2023-07-31T09:09:01;6.85;;;2.53;;
81811;SDS011;71243;51.848;5.768;2023-07-31T09:11:26;6.78;;;2.60;;
81811;SDS011;71243;51.848;5.768;2023-07-31T09:13:52;6.63;;;2.53;;
81811;SDS011;71243;51.848;5.768;2023-07-31T09:16:18;6.88;;;2.70;;
81811;SDS011;71243;51.848;5.768;2023-07-31T09:18:53;8.30;;;3.20;;
81811;SDS011;71243;51.848;5.768;2023-07-31T09:21:19;7.45;;;2.70;;
81811;SDS011;71243;51.848;5.768;2023-07-31T09:23:45;7.00;;;2.72;;
81811;SDS011;71243;51.848;5.768;2023-07-31T09:26:11;6.50;;;2.78;;
81811;SDS011;71243;51.848;5.768;2023-07-31T09:28:53;7.45;;;3.00;;
81811;SDS011;71243;51.848;5.768;2023-07-31T09:31:21;7.85;;;3.10;;
81811;SDS011;71243;51.848;5.768;2023-07-31T09:34:16;8.10;;;3.90;;
81811;SDS011;71243;51.848;5.768;2023-07-31T09:36:42;8.18;;;3.78;;
81811;SDS011;71243;51.848;5.768;2023-07-31T09:39:09;9.18;;;3.45;;
81811;SDS011;71243;51.848;5.768;2023-07-31T09:41:39;8.43;;;3.55;;
81811;SDS011;71243;51.848;5.768;2023-07-31T09:44:04;8.45;;;3.80;;
81811;SDS011;71243;51.848;5.768;2023-07-31T09:46:30;8.63;;;3.80;;
81811;SDS011;71243;51.848;5.768;2023-07-31T09:51:33;8.77;;;4.20;;
81811;SDS011;71243;51.848;5.768;2023-07-31T09:53:59;9.70;;;4.22;;
81811;SDS011;71243;51.848;5.768;2023-07-31T09:56:25;9.68;;;4.95;;
81811;SDS011;71243;51.848;5.768;2023-07-31T09:58:51;10.07;;;5.28;;
81811;SDS011;71243;51.848;5.768;2023-07-31T10:01:18;11.18;;;4.35;;
81811;SDS011;71243;51.848;5.768;2023-07-31T10:03:43;9.93;;;4.80;;
81811;SDS011;71243;51.848;5.768;2023-07-31T10:06:10;9.30;;;4.53;;
81811;SDS011;71243;51.848;5.768;2023-07-31T10:08:37;9.85;;;4.80;;
81811;SDS011;71243;51.848;5.768;2023-07-31T10:11:03;11.57;;;5.13;;
81811;SDS011;71243;51.848;5.768;2023-07-31T10:13:30;8.50;;;4.32;;
81811;SDS011;71243;51.848;5.768;2023-07-31T10:15:58;10.60;;;5.05;;
81811;SDS011;71243;51.848;5.768;2023-07-31T10:18:25;9.98;;;5.30;;
81811;SDS011;71243;51.848;5.768;2023-07-31T10:20:50;12.00;;;4.90;;
81811;SDS011;71243;51.848;5.768;2023-07-31T10:23:17;13.18;;;5.45;;
81811;SDS011;71243;51.848;5.768;2023-07-31T10:25:43;11.32;;;4.95;;
81811;SDS011;71243;51.848;5.768;2023-07-31T10:28:09;9.80;;;4.18;;
81811;SDS011;71243;51.848;5.768;2023-07-31T10:30:36;12.02;;;5.28;;
81811;SDS011;71243;51.848;5.768;2023-07-31T10:33:02;11.43;;;6.38;;
81811;SDS011;71243;51.848;5.768;2023-07-31T10:35:28;10.38;;;5.13;;
81811;SDS011;71243;51.848;5.768;2023-07-31T10:37:53;10.40;;;4.22;;
81811;SDS011;71243;51.848;5.768;2023-07-31T10:40:19;10.80;;;4.93;;
81811;SDS011;71243;51.848;5.768;2023-07-31T10:42:49;10.73;;;5.25;;
81811;SDS011;71243;51.848;5.768;2023-07-31T10:45:31;9.43;;;4.10;;
81811;SDS011;71243;51.848;5.768;2023-07-31T10:47:58;8.40;;;4.07;;
81811;SDS011;71243;51.848;5.768;2023-07-31T10:50:25;11.70;;;4.97;;
81811;SDS011;71243;51.848;5.768;2023-07-31T10:52:51;9.63;;;4.22;;
81811;SDS011;71243;51.848;5.768;2023-07-31T10:57:58;9.88;;;4.13;;
81811;SDS011;71243;51.848;5.768;2023-07-31T11:00:30;9.90;;;4.55;;
81811;SDS011;71243;51.848;5.768;2023-07-31T11:03:17;7.97;;;4.00;;
81811;SDS011;71243;51.848;5.768;2023-07-31T11:05:49;9.15;;;4.43;;
81811;SDS011;71243;51.848;5.768;2023-07-31T11:08:27;9.77;;;4.70;;
81811;SDS011;71243;51.848;5.768;2023-07-31T11:13:29;9.00;;;4.47;;
81811;SDS011;71243;51.848;5.768;2023-07-31T11:15:55;9.82;;;4.53;;
81811;SDS011;71243;51.848;5.768;2023-07-31T11:18:20;9.57;;;4.70;;
81811;SDS011;71243;51.848;5.768;2023-07-31T11:20:45;8.27;;;4.35;;
81811;SDS011;71243;51.848;5.768;2023-07-31T11:23:11;10.23;;;4.18;;
81811;SDS011;71243;51.848;5.768;2023-07-31T11:25:37;9.60;;;4.70;;
81811;SDS011;71243;51.848;5.768;2023-07-31T11:28:04;9.43;;;4.05;;
81811;SDS011;71243;51.848;5.768;2023-07-31T11:30:31;9.40;;;4.47;;
81811;SDS011;71243;51.848;5.768;2023-07-31T11:32:57;10.95;;;4.03;;
81811;SDS011;71243;51.848;5.768;2023-07-31T11:35:22;7.65;;;4.07;;
81811;SDS011;71243;51.848;5.768;2023-07-31T11:37:47;10.90;;;4.63;;
81811;SDS011;71243;51.848;5.768;2023-07-31T11:40:13;8.27;;;3.97;;
81811;SDS011;71243;51.848;5.768;2023-07-31T11:42:38;7.60;;;3.55;;
81811;SDS011;71243;51.848;5.768;2023-07-31T11:45:04;8.48;;;3.47;;
81811;SDS011;71243;51.848;5.768;2023-07-31T11:47:29;10.73;;;4.40;;
81811;SDS011;71243;51.848;5.768;2023-07-31T11:49:56;9.23;;;4.05;;
81811;SDS011;71243;51.848;5.768;2023-07-31T11:52:22;8.63;;;4.25;;
81811;SDS011;71243;51.848;5.768;2023-07-31T11:54:48;8.82;;;3.75;;
81811;SDS011;71243;51.848;5.768;2023-07-31T11:57:14;7.97;;;4.22;;
81811;SDS011;71243;51.848;5.768;2023-07-31T11:59:40;9.75;;;4.05;;
81811;SDS011;71243;51.848;5.768;2023-07-31T12:02:07;8.25;;;3.80;;
81811;SDS011;71243;51.848;5.768;2023-07-31T12:04:32;8.90;;;4.00;;
81811;SDS011;71243;51.848;5.768;2023-07-31T12:07:00;8.77;;;3.85;;
81811;SDS011;71243;51.848;5.768;2023-07-31T12:09:25;9.50;;;3.72;;
81811;SDS011;71243;51.848;5.768;2023-07-31T12:11:50;8.68;;;4.15;;
81811;SDS011;71243;51.848;5.768;2023-07-31T12:14:26;8.87;;;4.00;;
81811;SDS011;71243;51.848;5.768;2023-07-31T12:16:53;9.60;;;3.80;;
81811;SDS011;71243;51.848;5.768;2023-07-31T12:19:24;8.63;;;3.90;;
81811;SDS011;71243;51.848;5.768;2023-07-31T12:21:50;9.57;;;3.95;;
81811;SDS011;71243;51.848;5.768;2023-07-31T12:24:17;8.52;;;3.83;;
81811;SDS011;71243;51.848;5.768;2023-07-31T12:26:45;10.85;;;4.85;;
81811;SDS011;71243;51.848;5.768;2023-07-31T12:29:11;9.85;;;4.00;;
81811;SDS011;71243;51.848;5.768;2023-07-31T12:31:36;9.43;;;4.10;;
81811;SDS011;71243;51.848;5.768;2023-07-31T12:34:01;8.70;;;4.30;;
81811;SDS011;71243;51.848;5.768;2023-07-31T12:36:26;8.80;;;3.80;;
81811;SDS011;71243;51.848;5.768;2023-07-31T12:38:52;11.32;;;4.15;;
81811;SDS011;71243;51.848;5.768;2023-07-31T12:41:18;10.85;;;4.28;;
81811;SDS011;71243;51.848;5.768;2023-07-31T12:43:44;8.82;;;4.03;;
81811;SDS011;71243;51.848;5.768;2023-07-31T12:46:10;9.55;;;4.63;;
81811;SDS011;71243;51.848;5.768;2023-07-31T12:48:36;10.13;;;4.10;;
81811;SDS011;71243;51.848;5.768;2023-07-31T12:51:02;9.65;;;3.75;;
81811;SDS011;71243;51.848;5.768;2023-07-31T12:53:28;9.75;;;4.35;;
81811;SDS011;71243;51.848;5.768;2023-07-31T12:55:54;10.07;;;4.05;;
81811;SDS011;71243;51.848;5.768;2023-07-31T12:58:19;8.52;;;4.28;;
81811;SDS011;71243;51.848;5.768;2023-07-31T13:00:45;7.90;;;3.75;;
81811;SDS011;71243;51.848;5.768;2023-07-31T13:03:10;8.50;;;4.10;;
81811;SDS011;71243;51.848;5.768;2023-07-31T13:05:35;9.17;;;4.03;;
81811;SDS011;71243;51.848;5.768;2023-07-31T13:08:00;8.38;;;3.50;;
81811;SDS011;71243;51.848;5.768;2023-07-31T13:10:26;7.97;;;3.53;;
81811;SDS011;71243;51.848;5.768;2023-07-31T13:12:52;8.85;;;4.15;;
81811;SDS011;71243;51.848;5.768;2023-07-31T13:15:17;7.53;;;3.10;;
81811;SDS011;71243;51.848;5.768;2023-07-31T13:17:43;9.10;;;3.72;;
81811;SDS011;71243;51.848;5.768;2023-07-31T13:20:08;8.50;;;3.55;;
81811;SDS011;71243;51.848;5.768;2023-07-31T13:22:34;8.10;;;3.70;;
81811;SDS011;71243;51.848;5.768;2023-07-31T13:24:59;8.55;;;3.38;;
81811;SDS011;71243;51.848;5.768;2023-07-31T13:27:24;8.45;;;3.90;;
81811;SDS011;71243;51.848;5.768;2023-07-31T13:29:50;7.13;;;3.30;;
81811;SDS011;71243;51.848;5.768;2023-07-31T13:32:16;9.30;;;3.80;;
81811;SDS011;71243;51.848;5.768;2023-07-31T13:34:42;8.07;;;3.35;;
81811;SDS011;71243;51.848;5.768;2023-07-31T13:37:08;7.28;;;3.03;;
81811;SDS011;71243;51.848;5.768;2023-07-31T13:39:33;8.57;;;3.53;;
81811;SDS011;71243;51.848;5.768;2023-07-31T13:41:59;8.13;;;3.60;;
81811;SDS011;71243;51.848;5.768;2023-07-31T13:44:24;9.98;;;3.70;;
81811;SDS011;71243;51.848;5.768;2023-07-31T13:46:49;11.00;;;3.67;;
81811;SDS011;71243;51.848;5.768;2023-07-31T13:49:15;9.73;;;4.10;;
81811;SDS011;71243;51.848;5.768;2023-07-31T13:51:40;11.80;;;4.03;;
81811;SDS011;71243;51.848;5.768;2023-07-31T13:54:05;12.17;;;4.10;;
81811;SDS011;71243;51.848;5.768;2023-07-31T13:56:31;10.53;;;4.03;;
81811;SDS011;71243;51.848;5.768;2023-07-31T13:58:56;8.07;;;3.63;;
81811;SDS011;71243;51.848;5.768;2023-07-31T14:01:21;9.27;;;4.10;;
81811;SDS011;71243;51.848;5.768;2023-07-31T14:03:46;8.88;;;3.30;;
81811;SDS011;71243;51.848;5.768;2023-07-31T14:06:11;9.75;;;3.83;;
81811;SDS011;71243;51.848;5.768;2023-07-31T14:08:37;9.30;;;3.90;;
81811;SDS011;71243;51.848;5.768;2023-07-31T14:11:02;8.77;;;3.80;;
81811;SDS011;71243;51.848;5.768;2023-07-31T14:13:27;10.07;;;4.50;;
81811;SDS011;71243;51.848;5.768;2023-07-31T14:15:52;9.88;;;4.05;;
81811;SDS011;71243;51.848;5.768;2023-07-31T14:18:18;12.50;;;4.80;;
81811;SDS011;71243;51.848;5.768;2023-07-31T14:20:43;9.25;;;3.90;;
81811;SDS011;71243;51.848;5.768;2023-07-31T14:23:09;11.02;;;4.43;;
81811;SDS011;71243;51.848;5.768;2023-07-31T14:25:34;9.70;;;3.70;;
81811;SDS011;71243;51.848;5.768;2023-07-31T14:27:59;13.00;;;4.15;;
81811;SDS011;71243;51.848;5.768;2023-07-31T14:30:24;10.10;;;3.33;;
81811;SDS011;71243;51.848;5.768;2023-07-31T14:32:50;10.27;;;3.75;;
81811;SDS011;71243;51.848;5.768;2023-07-31T14:35:15;13.10;;;4.90;;
81811;SDS011;71243;51.848;5.768;2023-07-31T14:37:41;10.30;;;4.13;;
81811;SDS011;71243;51.848;5.768;2023-07-31T14:40:10;11.90;;;4.72;;
81811;SDS011;71243;51.848;5.768;2023-07-31T14:42:37;11.98;;;4.80;;
81811;SDS011;71243;51.848;5.768;2023-07-31T14:45:03;11.00;;;5.00;;
81811;SDS011;71243;51.848;5.768;2023-07-31T14:47:28;11.18;;;5.03;;
81811;SDS011;71243;51.848;5.768;2023-07-31T14:49:54;9.90;;;4.50;;